KAQW/AQW METAR and TAF weather

Enter ICAO airport designator
Station Type Date Time Source
KAQW METAR 2018/10/22 15:52 UTC NOAA

KAQW 221552Z AUTO 23008KT 10SM BKN055 OVC100 06/M01 A3016 RMK AO2 SLP221 T00561006


Station Type Date Time Source
KAQW Decoded METAR 2018/10/22 15:52 UTC NOAA

N ADAMS HARRIMAN-AND-WEST, MA, United States (KAQW) 42-42N 073-10W 201M
Oct 22, 2018 - 11:52 AM EDT / 2018.10.22 1552 UTC
Wind: from the SW (230 degrees) at 9 MPH (8 KT):0
Visibility: 10 mile(s):0
Sky conditions: overcast
Temperature: 42.1 F (5.6 C)
Dew Point: 30.9 F (-0.6 C)
Relative Humidity: 64%
Pressure (altimeter): 30.16 in. Hg (1021 hPa)
ob: KAQW 221552Z AUTO 23008KT 10SM BKN055 OVC100 06/M01 A3016 RMK AO2 SLP221 T00561006
cycle: 16

Station Type Date Time Source
KAQW TAF UTC NOAA

Error!


Example: see airport list